sensor_id;sensor_type;location;lat;lon;timestamp;P1;durP1;ratioP1;P2;durP2;ratioP2
17937;SDS011;16051;53.024;8.630;2022-08-19T00:03:37;7.23;;;6.47;;
17937;SDS011;16051;53.024;8.630;2022-08-19T00:07:40;7.17;;;6.47;;
17937;SDS011;16051;53.024;8.630;2022-08-19T00:11:51;7.23;;;5.97;;
17937;SDS011;16051;53.024;8.630;2022-08-19T00:15:56;7.33;;;5.90;;
17937;SDS011;16051;53.024;8.630;2022-08-19T00:20:00;9.13;;;6.27;;
17937;SDS011;16051;53.024;8.630;2022-08-19T00:24:03;7.23;;;6.23;;
17937;SDS011;16051;53.024;8.630;2022-08-19T00:28:07;7.57;;;6.87;;
17937;SDS011;16051;53.024;8.630;2022-08-19T00:32:13;5.97;;;4.90;;
17937;SDS011;16051;53.024;8.630;2022-08-19T00:36:15;6.40;;;5.63;;
17937;SDS011;16051;53.024;8.630;2022-08-19T00:40:18;9.00;;;7.63;;
17937;SDS011;16051;53.024;8.630;2022-08-19T00:44:22;8.30;;;6.47;;
17937;SDS011;16051;53.024;8.630;2022-08-19T00:48:28;7.17;;;5.37;;
17937;SDS011;16051;53.024;8.630;2022-08-19T00:52:32;8.97;;;7.73;;
17937;SDS011;16051;53.024;8.630;2022-08-19T00:56:38;6.93;;;6.23;;
17937;SDS011;16051;53.024;8.630;2022-08-19T01:00:41;7.00;;;5.70;;
17937;SDS011;16051;53.024;8.630;2022-08-19T01:04:45;8.00;;;7.17;;
17937;SDS011;16051;53.024;8.630;2022-08-19T01:08:47;9.90;;;8.90;;
17937;SDS011;16051;53.024;8.630;2022-08-19T01:12:49;9.80;;;8.77;;
17937;SDS011;16051;53.024;8.630;2022-08-19T01:21:26;9.03;;;7.27;;
17937;SDS011;16051;53.024;8.630;2022-08-19T01:25:39;10.33;;;9.17;;
17937;SDS011;16051;53.024;8.630;2022-08-19T01:29:47;11.37;;;8.27;;
17937;SDS011;16051;53.024;8.630;2022-08-19T01:33:50;9.33;;;8.00;;
17937;SDS011;16051;53.024;8.630;2022-08-19T01:37:56;11.30;;;10.07;;
17937;SDS011;16051;53.024;8.630;2022-08-19T01:42:03;7.80;;;7.10;;
17937;SDS011;16051;53.024;8.630;2022-08-19T01:46:07;8.23;;;7.00;;
17937;SDS011;16051;53.024;8.630;2022-08-19T01:50:10;8.97;;;8.00;;
17937;SDS011;16051;53.024;8.630;2022-08-19T01:54:14;11.50;;;10.30;;
17937;SDS011;16051;53.024;8.630;2022-08-19T01:58:23;13.40;;;10.00;;
17937;SDS011;16051;53.024;8.630;2022-08-19T02:02:46;10.30;;;8.50;;
17937;SDS011;16051;53.024;8.630;2022-08-19T02:06:48;12.07;;;10.27;;
17937;SDS011;16051;53.024;8.630;2022-08-19T02:10:50;8.80;;;7.90;;
17937;SDS011;16051;53.024;8.630;2022-08-19T02:14:54;8.97;;;7.90;;
17937;SDS011;16051;53.024;8.630;2022-08-19T02:18:56;7.80;;;7.00;;
17937;SDS011;16051;53.024;8.630;2022-08-19T02:23:00;8.23;;;7.23;;
17937;SDS011;16051;53.024;8.630;2022-08-19T02:27:02;7.97;;;7.17;;
17937;SDS011;16051;53.024;8.630;2022-08-19T02:31:09;9.07;;;7.03;;
17937;SDS011;16051;53.024;8.630;2022-08-19T02:35:14;6.20;;;5.40;;
17937;SDS011;16051;53.024;8.630;2022-08-19T02:39:17;6.40;;;5.77;;
17937;SDS011;16051;53.024;8.630;2022-08-19T02:43:20;8.10;;;7.03;;
17937;SDS011;16051;53.024;8.630;2022-08-19T02:47:24;11.30;;;8.80;;
17937;SDS011;16051;53.024;8.630;2022-08-19T02:55:49;10.57;;;8.57;;
17937;SDS011;16051;53.024;8.630;2022-08-19T02:59:52;8.40;;;7.43;;
17937;SDS011;16051;53.024;8.630;2022-08-19T03:03:56;10.50;;;8.37;;
17937;SDS011;16051;53.024;8.630;2022-08-19T03:08:01;9.63;;;8.10;;
17937;SDS011;16051;53.024;8.630;2022-08-19T03:12:05;7.40;;;6.63;;
17937;SDS011;16051;53.024;8.630;2022-08-19T03:16:09;11.83;;;9.03;;
17937;SDS011;16051;53.024;8.630;2022-08-19T03:20:14;9.30;;;7.77;;
17937;SDS011;16051;53.024;8.630;2022-08-19T03:24:16;10.83;;;8.97;;
17937;SDS011;16051;53.024;8.630;2022-08-19T03:28:19;9.87;;;8.03;;
17937;SDS011;16051;53.024;8.630;2022-08-19T03:32:22;8.27;;;7.43;;
17937;SDS011;16051;53.024;8.630;2022-08-19T03:41:09;10.93;;;9.20;;
17937;SDS011;16051;53.024;8.630;2022-08-19T03:45:15;9.53;;;8.47;;
17937;SDS011;16051;53.024;8.630;2022-08-19T03:49:18;13.03;;;9.73;;
17937;SDS011;16051;53.024;8.630;2022-08-19T03:53:23;10.27;;;8.50;;
17937;SDS011;16051;53.024;8.630;2022-08-19T03:57:26;12.13;;;9.20;;
17937;SDS011;16051;53.024;8.630;2022-08-19T04:01:36;10.27;;;8.93;;
17937;SDS011;16051;53.024;8.630;2022-08-19T04:05:38;10.27;;;9.00;;
17937;SDS011;16051;53.024;8.630;2022-08-19T04:09:42;10.77;;;9.33;;
17937;SDS011;16051;53.024;8.630;2022-08-19T04:13:44;11.30;;;9.07;;
17937;SDS011;16051;53.024;8.630;2022-08-19T04:17:46;8.67;;;7.27;;
17937;SDS011;16051;53.024;8.630;2022-08-19T04:21:50;8.53;;;7.60;;
17937;SDS011;16051;53.024;8.630;2022-08-19T04:25:56;11.70;;;8.33;;
17937;SDS011;16051;53.024;8.630;2022-08-19T04:29:59;10.07;;;8.07;;
17937;SDS011;16051;53.024;8.630;2022-08-19T04:34:02;11.30;;;8.67;;
17937;SDS011;16051;53.024;8.630;2022-08-19T04:38:07;9.80;;;7.33;;
17937;SDS011;16051;53.024;8.630;2022-08-19T04:42:13;12.03;;;9.33;;
17937;SDS011;16051;53.024;8.630;2022-08-19T04:46:34;10.17;;;7.83;;
17937;SDS011;16051;53.024;8.630;2022-08-19T04:50:39;11.63;;;9.43;;
17937;SDS011;16051;53.024;8.630;2022-08-19T04:54:43;12.80;;;9.80;;
17937;SDS011;16051;53.024;8.630;2022-08-19T04:58:46;15.53;;;9.60;;
17937;SDS011;16051;53.024;8.630;2022-08-19T05:02:51;16.20;;;10.70;;
17937;SDS011;16051;53.024;8.630;2022-08-19T05:06:53;16.03;;;10.67;;
17937;SDS011;16051;53.024;8.630;2022-08-19T05:15:25;15.47;;;10.90;;
17937;SDS011;16051;53.024;8.630;2022-08-19T05:19:28;16.70;;;10.90;;
17937;SDS011;16051;53.024;8.630;2022-08-19T05:24:02;11.57;;;8.70;;
17937;SDS011;16051;53.024;8.630;2022-08-19T05:28:08;11.03;;;8.30;;
17937;SDS011;16051;53.024;8.630;2022-08-19T05:32:12;11.63;;;8.63;;
17937;SDS011;16051;53.024;8.630;2022-08-19T05:36:16;11.60;;;8.47;;
17937;SDS011;16051;53.024;8.630;2022-08-19T05:40:19;9.63;;;8.30;;
17937;SDS011;16051;53.024;8.630;2022-08-19T05:44:23;9.53;;;7.33;;
17937;SDS011;16051;53.024;8.630;2022-08-19T05:48:27;11.23;;;8.27;;
17937;SDS011;16051;53.024;8.630;2022-08-19T05:52:30;8.20;;;6.40;;
17937;SDS011;16051;53.024;8.630;2022-08-19T05:56:48;7.80;;;6.37;;
17937;SDS011;16051;53.024;8.630;2022-08-19T06:00:52;8.43;;;6.73;;
17937;SDS011;16051;53.024;8.630;2022-08-19T06:04:56;7.30;;;6.50;;
17937;SDS011;16051;53.024;8.630;2022-08-19T06:08:58;8.53;;;7.63;;
17937;SDS011;16051;53.024;8.630;2022-08-19T06:13:00;7.50;;;6.70;;
17937;SDS011;16051;53.024;8.630;2022-08-19T06:17:03;6.50;;;5.80;;
17937;SDS011;16051;53.024;8.630;2022-08-19T06:21:06;9.07;;;7.03;;
17937;SDS011;16051;53.024;8.630;2022-08-19T06:25:09;8.67;;;7.47;;
17937;SDS011;16051;53.024;8.630;2022-08-19T06:33:19;9.97;;;8.23;;
17937;SDS011;16051;53.024;8.630;2022-08-19T06:37:23;7.43;;;6.47;;
17937;SDS011;16051;53.024;8.630;2022-08-19T06:41:25;12.57;;;7.67;;
17937;SDS011;16051;53.024;8.630;2022-08-19T06:45:28;8.80;;;7.47;;
17937;SDS011;16051;53.024;8.630;2022-08-19T06:49:30;8.53;;;7.63;;
17937;SDS011;16051;53.024;8.630;2022-08-19T06:53:34;11.10;;;8.97;;
17937;SDS011;16051;53.024;8.630;2022-08-19T06:57:36;8.53;;;7.70;;
17937;SDS011;16051;53.024;8.630;2022-08-19T07:01:39;10.20;;;8.03;;
17937;SDS011;16051;53.024;8.630;2022-08-19T07:05:45;7.97;;;7.20;;
17937;SDS011;16051;53.024;8.630;2022-08-19T07:09:49;8.43;;;7.13;;
17937;SDS011;16051;53.024;8.630;2022-08-19T07:13:53;7.83;;;7.10;;
17937;SDS011;16051;53.024;8.630;2022-08-19T07:17:55;9.97;;;6.80;;
17937;SDS011;16051;53.024;8.630;2022-08-19T07:22:06;7.47;;;5.93;;
17937;SDS011;16051;53.024;8.630;2022-08-19T07:26:13;7.07;;;5.97;;
17937;SDS011;16051;53.024;8.630;2022-08-19T07:30:19;5.93;;;5.37;;
17937;SDS011;16051;53.024;8.630;2022-08-19T07:34:23;7.83;;;5.10;;
17937;SDS011;16051;53.024;8.630;2022-08-19T07:38:26;4.87;;;4.40;;
17937;SDS011;16051;53.024;8.630;2022-08-19T07:42:29;7.57;;;4.97;;
17937;SDS011;16051;53.024;8.630;2022-08-19T07:46:32;7.93;;;5.67;;
17937;SDS011;16051;53.024;8.630;2022-08-19T07:50:37;5.57;;;4.30;;
17937;SDS011;16051;53.024;8.630;2022-08-19T07:54:53;6.00;;;3.90;;
17937;SDS011;16051;53.024;8.630;2022-08-19T08:08:20;7.13;;;4.63;;
17937;SDS011;16051;53.024;8.630;2022-08-19T08:12:40;7.27;;;5.47;;
17937;SDS011;16051;53.024;8.630;2022-08-19T08:21:22;6.23;;;5.63;;
17937;SDS011;16051;53.024;8.630;2022-08-19T08:25:25;8.77;;;4.87;;
17937;SDS011;16051;53.024;8.630;2022-08-19T08:29:44;5.27;;;4.50;;
17937;SDS011;16051;53.024;8.630;2022-08-19T08:33:54;5.90;;;4.87;;
17937;SDS011;16051;53.024;8.630;2022-08-19T08:37:57;6.43;;;5.27;;
17937;SDS011;16051;53.024;8.630;2022-08-19T08:42:01;5.93;;;5.30;;
17937;SDS011;16051;53.024;8.630;2022-08-19T08:50:48;5.23;;;4.73;;
17937;SDS011;16051;53.024;8.630;2022-08-19T08:54:54;5.10;;;4.60;;
17937;SDS011;16051;53.024;8.630;2022-08-19T08:59:01;6.43;;;4.77;;
17937;SDS011;16051;53.024;8.630;2022-08-19T09:03:16;4.20;;;3.67;;
17937;SDS011;16051;53.024;8.630;2022-08-19T09:07:25;3.00;;;2.80;;
17937;SDS011;16051;53.024;8.630;2022-08-19T09:11:47;3.97;;;3.10;;
17937;SDS011;16051;53.024;8.630;2022-08-19T09:16:06;3.50;;;3.20;;
17937;SDS011;16051;53.024;8.630;2022-08-19T09:20:14;4.63;;;2.80;;
17937;SDS011;16051;53.024;8.630;2022-08-19T09:24:24;4.33;;;2.37;;
17937;SDS011;16051;53.024;8.630;2022-08-19T09:28:35;3.23;;;1.77;;
17937;SDS011;16051;53.024;8.630;2022-08-19T09:32:38;3.30;;;1.70;;
17937;SDS011;16051;53.024;8.630;2022-08-19T09:36:42;2.60;;;2.03;;
17937;SDS011;16051;53.024;8.630;2022-08-19T09:40:45;3.47;;;2.33;;
17937;SDS011;16051;53.024;8.630;2022-08-19T09:44:48;2.00;;;1.50;;
17937;SDS011;16051;53.024;8.630;2022-08-19T09:49:02;1.83;;;1.73;;
17937;SDS011;16051;53.024;8.630;2022-08-19T09:53:06;2.97;;;1.60;;
17937;SDS011;16051;53.024;8.630;2022-08-19T09:57:09;2.57;;;1.77;;
17937;SDS011;16051;53.024;8.630;2022-08-19T10:01:15;2.37;;;2.17;;
17937;SDS011;16051;53.024;8.630;2022-08-19T10:05:19;1.40;;;1.30;;
17937;SDS011;16051;53.024;8.630;2022-08-19T10:09:41;3.67;;;1.60;;
17937;SDS011;16051;53.024;8.630;2022-08-19T10:13:45;1.97;;;1.50;;
17937;SDS011;16051;53.024;8.630;2022-08-19T10:17:48;1.53;;;1.00;;
17937;SDS011;16051;53.024;8.630;2022-08-19T10:21:50;3.97;;;1.30;;
17937;SDS011;16051;53.024;8.630;2022-08-19T10:30:21;3.83;;;1.60;;
17937;SDS011;16051;53.024;8.630;2022-08-19T10:34:23;1.03;;;0.90;;
17937;SDS011;16051;53.024;8.630;2022-08-19T10:38:25;2.33;;;0.90;;
17937;SDS011;16051;53.024;8.630;2022-08-19T10:42:29;1.07;;;0.97;;
17937;SDS011;16051;53.024;8.630;2022-08-19T10:46:36;2.10;;;0.90;;
17937;SDS011;16051;53.024;8.630;2022-08-19T10:50:42;0.80;;;0.70;;
17937;SDS011;16051;53.024;8.630;2022-08-19T10:55:02;1.07;;;0.80;;
17937;SDS011;16051;53.024;8.630;2022-08-19T10:59:25;1.37;;;0.70;;
17937;SDS011;16051;53.024;8.630;2022-08-19T11:03:31;1.37;;;1.20;;
17937;SDS011;16051;53.024;8.630;2022-08-19T11:07:33;1.35;;;0.93;;
17937;SDS011;16051;53.024;8.630;2022-08-19T11:11:36;1.33;;;1.23;;
17937;SDS011;16051;53.024;8.630;2022-08-19T11:15:41;3.22;;;2.25;;
17937;SDS011;16051;53.024;8.630;2022-08-19T11:19:45;1.98;;;1.88;;
17937;SDS011;16051;53.024;8.630;2022-08-19T11:23:48;1.97;;;1.20;;
17937;SDS011;16051;53.024;8.630;2022-08-19T11:27:53;1.83;;;0.90;;
17937;SDS011;16051;53.024;8.630;2022-08-19T11:36:30;1.83;;;1.52;;
17937;SDS011;16051;53.024;8.630;2022-08-19T11:40:33;1.83;;;1.73;;
17937;SDS011;16051;53.024;8.630;2022-08-19T11:44:35;1.23;;;1.13;;
17937;SDS011;16051;53.024;8.630;2022-08-19T11:48:43;1.70;;;0.90;;
17937;SDS011;16051;53.024;8.630;2022-08-19T11:52:47;0.73;;;0.73;;
17937;SDS011;16051;53.024;8.630;2022-08-19T11:56:49;1.50;;;0.85;;
17937;SDS011;16051;53.024;8.630;2022-08-19T12:00:52;2.03;;;1.92;;
17937;SDS011;16051;53.024;8.630;2022-08-19T12:10:09;1.70;;;1.20;;
17937;SDS011;16051;53.024;8.630;2022-08-19T12:14:12;2.78;;;2.67;;
17937;SDS011;16051;53.024;8.630;2022-08-19T12:18:15;1.83;;;1.77;;
17937;SDS011;16051;53.024;8.630;2022-08-19T12:22:17;2.25;;;2.15;;
17937;SDS011;16051;53.024;8.630;2022-08-19T12:26:22;6.40;;;1.95;;
17937;SDS011;16051;53.024;8.630;2022-08-19T12:30:25;2.70;;;1.70;;
17937;SDS011;16051;53.024;8.630;2022-08-19T12:34:28;2.80;;;2.60;;
17937;SDS011;16051;53.024;8.630;2022-08-19T12:38:32;3.13;;;3.03;;
17937;SDS011;16051;53.024;8.630;2022-08-19T12:42:36;2.85;;;2.75;;
17937;SDS011;16051;53.024;8.630;2022-08-19T12:46:40;3.67;;;3.47;;
17937;SDS011;16051;53.024;8.630;2022-08-19T12:50:43;3.00;;;2.90;;
17937;SDS011;16051;53.024;8.630;2022-08-19T12:54:47;3.05;;;2.95;;
17937;SDS011;16051;53.024;8.630;2022-08-19T12:58:51;2.70;;;2.60;;
17937;SDS011;16051;53.024;8.630;2022-08-19T13:02:55;2.30;;;2.20;;
17937;SDS011;16051;53.024;8.630;2022-08-19T13:06:58;2.80;;;2.60;;
17937;SDS011;16051;53.024;8.630;2022-08-19T13:11:06;2.53;;;2.42;;
17937;SDS011;16051;53.024;8.630;2022-08-19T13:15:13;1.75;;;1.60;;
17937;SDS011;16051;53.024;8.630;2022-08-19T13:19:21;6.95;;;2.67;;
17937;SDS011;16051;53.024;8.630;2022-08-19T13:23:23;2.67;;;2.53;;
17937;SDS011;16051;53.024;8.630;2022-08-19T13:27:25;2.58;;;2.47;;
17937;SDS011;16051;53.024;8.630;2022-08-19T13:31:30;1.67;;;1.25;;
17937;SDS011;16051;53.024;8.630;2022-08-19T13:36:00;2.30;;;2.20;;
17937;SDS011;16051;53.024;8.630;2022-08-19T13:40:03;2.33;;;2.22;;
17937;SDS011;16051;53.024;8.630;2022-08-19T13:44:07;5.53;;;2.80;;
17937;SDS011;16051;53.024;8.630;2022-08-19T13:48:11;2.25;;;2.03;;
17937;SDS011;16051;53.024;8.630;2022-08-19T13:52:14;1.70;;;1.60;;
17937;SDS011;16051;53.024;8.630;2022-08-19T13:56:17;1.90;;;1.73;;
17937;SDS011;16051;53.024;8.630;2022-08-19T14:00:21;1.58;;;1.48;;
17937;SDS011;16051;53.024;8.630;2022-08-19T14:04:27;1.55;;;1.45;;
17937;SDS011;16051;53.024;8.630;2022-08-19T14:08:30;2.00;;;1.90;;
17937;SDS011;16051;53.024;8.630;2022-08-19T14:12:32;3.33;;;2.00;;
17937;SDS011;16051;53.024;8.630;2022-08-19T14:16:36;1.90;;;1.63;;
17937;SDS011;16051;53.024;8.630;2022-08-19T14:20:40;1.60;;;1.50;;
17937;SDS011;16051;53.024;8.630;2022-08-19T14:24:43;1.75;;;1.63;;
17937;SDS011;16051;53.024;8.630;2022-08-19T14:28:45;3.72;;;1.90;;
17937;SDS011;16051;53.024;8.630;2022-08-19T14:32:47;2.50;;;2.30;;
17937;SDS011;16051;53.024;8.630;2022-08-19T14:36:51;3.22;;;2.67;;
17937;SDS011;16051;53.024;8.630;2022-08-19T14:40:53;2.92;;;2.65;;
17937;SDS011;16051;53.024;8.630;2022-08-19T14:45:02;3.28;;;2.90;;
17937;SDS011;16051;53.024;8.630;2022-08-19T14:49:06;2.40;;;2.30;;
17937;SDS011;16051;53.024;8.630;2022-08-19T14:53:16;4.70;;;2.70;;
17937;SDS011;16051;53.024;8.630;2022-08-19T14:57:37;3.58;;;2.10;;
17937;SDS011;16051;53.024;8.630;2022-08-19T15:01:48;2.78;;;2.58;;
17937;SDS011;16051;53.024;8.630;2022-08-19T15:06:05;2.58;;;2.22;;
17937;SDS011;16051;53.024;8.630;2022-08-19T15:14:40;2.30;;;2.17;;
17937;SDS011;16051;53.024;8.630;2022-08-19T15:18:45;3.05;;;2.85;;
17937;SDS011;16051;53.024;8.630;2022-08-19T15:22:51;2.67;;;2.58;;
17937;SDS011;16051;53.024;8.630;2022-08-19T15:27:01;2.10;;;2.00;;
17937;SDS011;16051;53.024;8.630;2022-08-19T15:31:05;3.10;;;2.90;;
17937;SDS011;16051;53.024;8.630;2022-08-19T15:35:07;2.78;;;2.53;;
17937;SDS011;16051;53.024;8.630;2022-08-19T15:39:10;3.08;;;2.88;;
17937;SDS011;16051;53.024;8.630;2022-08-19T15:47:29;3.22;;;2.92;;
17937;SDS011;16051;53.024;8.630;2022-08-19T15:51:32;2.70;;;2.58;;
17937;SDS011;16051;53.024;8.630;2022-08-19T15:55:41;3.03;;;2.92;;
17937;SDS011;16051;53.024;8.630;2022-08-19T15:59:48;3.50;;;3.30;;
17937;SDS011;16051;53.024;8.630;2022-08-19T16:04:08;2.60;;;2.50;;
17937;SDS011;16051;53.024;8.630;2022-08-19T16:08:28;2.63;;;2.53;;
17937;SDS011;16051;53.024;8.630;2022-08-19T16:12:30;2.53;;;1.90;;
17937;SDS011;16051;53.024;8.630;2022-08-19T16:16:34;2.75;;;2.58;;
17937;SDS011;16051;53.024;8.630;2022-08-19T16:20:38;2.22;;;2.13;;
17937;SDS011;16051;53.024;8.630;2022-08-19T16:24:40;2.00;;;1.90;;
17937;SDS011;16051;53.024;8.630;2022-08-19T16:28:43;2.00;;;1.80;;
17937;SDS011;16051;53.024;8.630;2022-08-19T16:32:47;1.60;;;1.50;;
17937;SDS011;16051;53.024;8.630;2022-08-19T16:36:50;3.20;;;2.20;;
17937;SDS011;16051;53.024;8.630;2022-08-19T16:40:52;3.50;;;2.25;;
17937;SDS011;16051;53.024;8.630;2022-08-19T16:44:56;2.63;;;2.42;;
17937;SDS011;16051;53.024;8.630;2022-08-19T16:48:59;4.63;;;2.15;;
17937;SDS011;16051;53.024;8.630;2022-08-19T16:53:01;2.83;;;2.25;;
17937;SDS011;16051;53.024;8.630;2022-08-19T16:57:10;2.38;;;2.17;;
17937;SDS011;16051;53.024;8.630;2022-08-19T17:01:13;2.25;;;2.15;;
17937;SDS011;16051;53.024;8.630;2022-08-19T17:05:16;2.90;;;2.70;;
17937;SDS011;16051;53.024;8.630;2022-08-19T17:09:19;2.50;;;2.30;;
17937;SDS011;16051;53.024;8.630;2022-08-19T17:13:21;3.38;;;3.08;;
17937;SDS011;16051;53.024;8.630;2022-08-19T17:17:26;2.78;;;2.58;;
17937;SDS011;16051;53.024;8.630;2022-08-19T17:21:42;3.35;;;2.25;;
17937;SDS011;16051;53.024;8.630;2022-08-19T17:25:44;2.25;;;2.15;;
17937;SDS011;16051;53.024;8.630;2022-08-19T17:29:47;2.97;;;2.45;;
17937;SDS011;16051;53.024;8.630;2022-08-19T17:33:49;2.33;;;1.73;;
17937;SDS011;16051;53.024;8.630;2022-08-19T17:37:53;2.60;;;1.77;;
17937;SDS011;16051;53.024;8.630;2022-08-19T17:41:56;2.22;;;2.05;;
17937;SDS011;16051;53.024;8.630;2022-08-19T17:46:00;2.22;;;2.03;;
17937;SDS011;16051;53.024;8.630;2022-08-19T17:50:04;1.98;;;1.88;;
17937;SDS011;16051;53.024;8.630;2022-08-19T17:54:12;2.03;;;1.83;;
17937;SDS011;16051;53.024;8.630;2022-08-19T17:58:17;2.25;;;1.95;;
17937;SDS011;16051;53.024;8.630;2022-08-19T18:02:19;2.00;;;1.83;;
17937;SDS011;16051;53.024;8.630;2022-08-19T18:06:23;2.40;;;2.20;;
17937;SDS011;16051;53.024;8.630;2022-08-19T18:14:54;2.50;;;2.30;;
17937;SDS011;16051;53.024;8.630;2022-08-19T18:18:59;2.70;;;2.50;;
17937;SDS011;16051;53.024;8.630;2022-08-19T18:23:01;2.67;;;2.37;;
17937;SDS011;16051;53.024;8.630;2022-08-19T18:27:13;2.53;;;2.33;;
17937;SDS011;16051;53.024;8.630;2022-08-19T18:31:15;2.63;;;2.53;;
17937;SDS011;16051;53.024;8.630;2022-08-19T18:35:19;2.37;;;2.17;;
17937;SDS011;16051;53.024;8.630;2022-08-19T18:39:26;2.50;;;2.30;;
17937;SDS011;16051;53.024;8.630;2022-08-19T18:43:48;1.90;;;1.80;;
17937;SDS011;16051;53.024;8.630;2022-08-19T18:48:07;1.87;;;1.77;;
17937;SDS011;16051;53.024;8.630;2022-08-19T18:52:27;2.17;;;2.00;;
17937;SDS011;16051;53.024;8.630;2022-08-19T19:00:45;2.37;;;2.10;;
17937;SDS011;16051;53.024;8.630;2022-08-19T19:04:47;1.90;;;1.80;;
17937;SDS011;16051;53.024;8.630;2022-08-19T19:08:50;2.10;;;1.90;;
17937;SDS011;16051;53.024;8.630;2022-08-19T19:12:54;2.03;;;1.90;;
17937;SDS011;16051;53.024;8.630;2022-08-19T19:16:58;1.60;;;1.50;;
17937;SDS011;16051;53.024;8.630;2022-08-19T19:21:02;1.67;;;1.50;;
17937;SDS011;16051;53.024;8.630;2022-08-19T19:25:05;2.03;;;1.83;;
17937;SDS011;16051;53.024;8.630;2022-08-19T19:29:10;2.30;;;1.93;;
17937;SDS011;16051;53.024;8.630;2022-08-19T19:37:35;1.90;;;1.80;;
17937;SDS011;16051;53.024;8.630;2022-08-19T19:41:37;2.37;;;2.17;;
17937;SDS011;16051;53.024;8.630;2022-08-19T19:45:40;2.00;;;1.83;;
17937;SDS011;16051;53.024;8.630;2022-08-19T19:49:43;1.87;;;1.70;;
17937;SDS011;16051;53.024;8.630;2022-08-19T19:53:46;3.37;;;1.70;;
17937;SDS011;16051;53.024;8.630;2022-08-19T19:57:48;2.20;;;2.00;;
17937;SDS011;16051;53.024;8.630;2022-08-19T20:01:52;2.60;;;2.30;;
17937;SDS011;16051;53.024;8.630;2022-08-19T20:05:57;2.17;;;2.07;;
17937;SDS011;16051;53.024;8.630;2022-08-19T20:09:59;1.80;;;1.70;;
17937;SDS011;16051;53.024;8.630;2022-08-19T20:14:02;1.83;;;1.60;;
17937;SDS011;16051;53.024;8.630;2022-08-19T20:18:11;2.37;;;2.17;;
17937;SDS011;16051;53.024;8.630;2022-08-19T20:22:33;3.57;;;2.70;;
17937;SDS011;16051;53.024;8.630;2022-08-19T20:26:40;4.47;;;3.27;;
17937;SDS011;16051;53.024;8.630;2022-08-19T20:30:44;2.80;;;2.27;;
17937;SDS011;16051;53.024;8.630;2022-08-19T20:34:47;2.80;;;2.50;;
17937;SDS011;16051;53.024;8.630;2022-08-19T20:38:51;2.37;;;2.17;;
17937;SDS011;16051;53.024;8.630;2022-08-19T20:42:53;3.37;;;2.43;;
17937;SDS011;16051;53.024;8.630;2022-08-19T20:46:57;2.57;;;2.37;;
17937;SDS011;16051;53.024;8.630;2022-08-19T20:50:59;2.97;;;2.27;;
17937;SDS011;16051;53.024;8.630;2022-08-19T20:55:03;2.97;;;2.30;;
17937;SDS011;16051;53.024;8.630;2022-08-19T20:59:06;2.40;;;2.20;;
17937;SDS011;16051;53.024;8.630;2022-08-19T21:03:09;4.03;;;2.27;;
17937;SDS011;16051;53.024;8.630;2022-08-19T21:07:13;2.50;;;2.30;;
17937;SDS011;16051;53.024;8.630;2022-08-19T21:11:17;3.17;;;2.40;;
17937;SDS011;16051;53.024;8.630;2022-08-19T21:15:20;2.63;;;2.43;;
17937;SDS011;16051;53.024;8.630;2022-08-19T21:19:23;2.83;;;2.50;;
17937;SDS011;16051;53.024;8.630;2022-08-19T21:23:26;3.00;;;2.53;;
17937;SDS011;16051;53.024;8.630;2022-08-19T21:32:05;2.53;;;2.23;;
17937;SDS011;16051;53.024;8.630;2022-08-19T21:36:10;3.33;;;3.07;;
17937;SDS011;16051;53.024;8.630;2022-08-19T21:40:12;4.73;;;3.70;;
17937;SDS011;16051;53.024;8.630;2022-08-19T21:44:16;3.77;;;3.47;;
17937;SDS011;16051;53.024;8.630;2022-08-19T21:48:18;3.37;;;3.07;;
17937;SDS011;16051;53.024;8.630;2022-08-19T21:52:21;4.00;;;3.53;;
17937;SDS011;16051;53.024;8.630;2022-08-19T21:56:24;3.13;;;2.83;;
17937;SDS011;16051;53.024;8.630;2022-08-19T22:00:28;2.70;;;2.50;;
17937;SDS011;16051;53.024;8.630;2022-08-19T22:04:34;6.43;;;3.13;;
17937;SDS011;16051;53.024;8.630;2022-08-19T22:08:38;3.50;;;3.20;;
17937;SDS011;16051;53.024;8.630;2022-08-19T22:12:41;3.07;;;2.80;;
17937;SDS011;16051;53.024;8.630;2022-08-19T22:21:33;3.20;;;3.00;;
17937;SDS011;16051;53.024;8.630;2022-08-19T22:25:37;3.50;;;3.20;;
17937;SDS011;16051;53.024;8.630;2022-08-19T22:29:44;3.63;;;3.33;;
17937;SDS011;16051;53.024;8.630;2022-08-19T22:33:46;3.73;;;3.43;;
17937;SDS011;16051;53.024;8.630;2022-08-19T22:37:53;3.80;;;3.43;;
17937;SDS011;16051;53.024;8.630;2022-08-19T22:41:55;3.80;;;3.50;;
17937;SDS011;16051;53.024;8.630;2022-08-19T22:45:57;4.77;;;4.37;;
17937;SDS011;16051;53.024;8.630;2022-08-19T22:50:01;4.43;;;3.83;;
17937;SDS011;16051;53.024;8.630;2022-08-19T22:54:07;4.57;;;4.17;;
17937;SDS011;16051;53.024;8.630;2022-08-19T22:58:09;3.87;;;3.57;;
17937;SDS011;16051;53.024;8.630;2022-08-19T23:02:25;4.43;;;4.10;;
17937;SDS011;16051;53.024;8.630;2022-08-19T23:06:30;3.70;;;3.47;;
17937;SDS011;16051;53.024;8.630;2022-08-19T23:10:34;3.60;;;3.30;;
17937;SDS011;16051;53.024;8.630;2022-08-19T23:14:38;4.03;;;3.73;;
17937;SDS011;16051;53.024;8.630;2022-08-19T23:18:41;3.53;;;3.23;;
17937;SDS011;16051;53.024;8.630;2022-08-19T23:22:44;3.50;;;3.30;;
17937;SDS011;16051;53.024;8.630;2022-08-19T23:26:50;3.83;;;3.53;;
17937;SDS011;16051;53.024;8.630;2022-08-19T23:31:09;3.80;;;3.43;;
17937;SDS011;16051;53.024;8.630;2022-08-19T23:35:12;3.43;;;3.13;;
17937;SDS011;16051;53.024;8.630;2022-08-19T23:39:14;3.70;;;3.50;;
17937;SDS011;16051;53.024;8.630;2022-08-19T23:43:18;3.63;;;3.33;;
17937;SDS011;16051;53.024;8.630;2022-08-19T23:47:21;4.03;;;3.60;;
17937;SDS011;16051;53.024;8.630;2022-08-19T23:51:23;4.30;;;3.93;;
17937;SDS011;16051;53.024;8.630;2022-08-19T23:55:27;3.10;;;2.90;;
17937;SDS011;16051;53.024;8.630;2022-08-19T23:59:33;3.97;;;3.57;;
